sensor_id;sensor_type;location;lat;lon;timestamp;pressure;altitude;pressure_sealevel;temperature;humidity
23953;BME280;12163;49.316;6.092;2023-10-08T00:00:46;100343.84;;;15.00;82.24
23953;BME280;12163;49.316;6.092;2023-10-08T00:03:13;100330.25;;;15.00;82.63
23953;BME280;12163;49.316;6.092;2023-10-08T00:05:41;100338.41;;;15.00;82.68
23953;BME280;12163;49.316;6.092;2023-10-08T00:08:08;100334.59;;;15.01;82.73
23953;BME280;12163;49.316;6.092;2023-10-08T00:10:41;100333.25;;;14.98;82.69
23953;BME280;12163;49.316;6.092;2023-10-08T00:13:07;100331.94;;;14.96;82.16
23953;BME280;12163;49.316;6.092;2023-10-08T00:15:36;100328.50;;;14.90;82.42
23953;BME280;12163;49.316;6.092;2023-10-08T00:18:06;100330.13;;;14.91;82.53
23953;BME280;12163;49.316;6.092;2023-10-08T00:20:38;100326.59;;;14.91;82.51
23953;BME280;12163;49.316;6.092;2023-10-08T00:23:21;100334.25;;;14.89;82.79
23953;BME280;12163;49.316;6.092;2023-10-08T00:25:48;100335.03;;;14.89;82.76
23953;BME280;12163;49.316;6.092;2023-10-08T00:28:16;100339.13;;;14.87;82.57
23953;BME280;12163;49.316;6.092;2023-10-08T00:30:43;100336.72;;;14.85;82.72
23953;BME280;12163;49.316;6.092;2023-10-08T00:33:10;100345.16;;;14.84;83.18
23953;BME280;12163;49.316;6.092;2023-10-08T00:35:41;100334.59;;;14.82;82.66
23953;BME280;12163;49.316;6.092;2023-10-08T00:38:08;100339.81;;;14.79;82.84
23953;BME280;12163;49.316;6.092;2023-10-08T00:40:47;100330.63;;;14.75;83.01
23953;BME280;12163;49.316;6.092;2023-10-08T00:43:29;100343.47;;;14.69;82.85
23953;BME280;12163;49.316;6.092;2023-10-08T00:45:58;100337.25;;;14.69;83.06
23953;BME280;12163;49.316;6.092;2023-10-08T00:48:26;100334.03;;;14.67;83.75
23953;BME280;12163;49.316;6.092;2023-10-08T00:51:04;100337.00;;;14.65;83.46
23953;BME280;12163;49.316;6.092;2023-10-08T00:53:59;100336.50;;;14.63;83.55
23953;BME280;12163;49.316;6.092;2023-10-08T00:56:33;100331.34;;;14.62;83.95
23953;BME280;12163;49.316;6.092;2023-10-08T00:59:19;100327.00;;;14.61;83.93
23953;BME280;12163;49.316;6.092;2023-10-08T01:01:49;100328.63;;;14.62;84.17
23953;BME280;12163;49.316;6.092;2023-10-08T01:04:19;100323.16;;;14.67;84.17
23953;BME280;12163;49.316;6.092;2023-10-08T01:06:51;100324.97;;;14.71;84.36
23953;BME280;12163;49.316;6.092;2023-10-08T01:09:22;100324.38;;;14.74;83.99
23953;BME280;12163;49.316;6.092;2023-10-08T01:12:12;100322.56;;;14.70;84.16
23953;BME280;12163;49.316;6.092;2023-10-08T01:14:44;100328.00;;;14.70;84.17
23953;BME280;12163;49.316;6.092;2023-10-08T01:17:14;100307.38;;;14.69;84.33
23953;BME280;12163;49.316;6.092;2023-10-08T01:19:43;100308.47;;;14.68;84.21
23953;BME280;12163;49.316;6.092;2023-10-08T01:22:13;100309.03;;;14.65;84.15
23953;BME280;12163;49.316;6.092;2023-10-08T01:24:45;100297.13;;;14.61;83.91
23953;BME280;12163;49.316;6.092;2023-10-08T01:27:16;100303.16;;;14.58;84.21
23953;BME280;12163;49.316;6.092;2023-10-08T01:29:48;100302.66;;;14.56;83.96
23953;BME280;12163;49.316;6.092;2023-10-08T01:32:19;100316.22;;;14.56;84.36
23953;BME280;12163;49.316;6.092;2023-10-08T01:34:47;100309.69;;;14.57;84.16
23953;BME280;12163;49.316;6.092;2023-10-08T01:37:15;100301.63;;;14.52;84.51
23953;BME280;12163;49.316;6.092;2023-10-08T01:39:46;100297.88;;;14.48;83.95
23953;BME280;12163;49.316;6.092;2023-10-08T01:42:14;100293.81;;;14.45;84.54
23953;BME280;12163;49.316;6.092;2023-10-08T01:44:48;100293.03;;;14.45;84.68
23953;BME280;12163;49.316;6.092;2023-10-08T01:47:16;100298.47;;;14.45;84.65
23953;BME280;12163;49.316;6.092;2023-10-08T01:49:44;100293.53;;;14.47;85.07
23953;BME280;12163;49.316;6.092;2023-10-08T01:52:13;100297.28;;;14.51;84.69
23953;BME280;12163;49.316;6.092;2023-10-08T01:54:49;100298.31;;;14.55;84.94
23953;BME280;12163;49.316;6.092;2023-10-08T01:57:16;100304.50;;;14.60;84.75
23953;BME280;12163;49.316;6.092;2023-10-08T01:59:43;100292.81;;;14.60;84.66
23953;BME280;12163;49.316;6.092;2023-10-08T02:02:11;100295.53;;;14.60;84.51
23953;BME280;12163;49.316;6.092;2023-10-08T02:04:39;100295.00;;;14.58;84.87
23953;BME280;12163;49.316;6.092;2023-10-08T02:07:06;100292.28;;;14.58;85.01
23953;BME280;12163;49.316;6.092;2023-10-08T02:09:40;100290.09;;;14.60;85.05
23953;BME280;12163;49.316;6.092;2023-10-08T02:12:07;100283.28;;;14.62;85.10
23953;BME280;12163;49.316;6.092;2023-10-08T02:14:34;100281.84;;;14.65;85.09
23953;BME280;12163;49.316;6.092;2023-10-08T02:17:02;100285.13;;;14.67;84.66
23953;BME280;12163;49.316;6.092;2023-10-08T02:19:33;100296.53;;;14.64;84.44
23953;BME280;12163;49.316;6.092;2023-10-08T02:22:01;100290.09;;;14.60;84.05
23953;BME280;12163;49.316;6.092;2023-10-08T02:24:28;100285.84;;;14.54;84.40
23953;BME280;12163;49.316;6.092;2023-10-08T02:26:56;100290.53;;;14.48;84.16
23953;BME280;12163;49.316;6.092;2023-10-08T02:29:28;100288.91;;;14.47;84.29
23953;BME280;12163;49.316;6.092;2023-10-08T02:31:55;100287.59;;;14.45;84.33
23953;BME280;12163;49.316;6.092;2023-10-08T02:34:22;100295.25;;;14.43;84.54
23953;BME280;12163;49.316;6.092;2023-10-08T02:36:48;100291.47;;;14.39;84.89
23953;BME280;12163;49.316;6.092;2023-10-08T02:39:15;100290.94;;;14.37;84.57
23953;BME280;12163;49.316;6.092;2023-10-08T02:41:49;100291.53;;;14.34;84.22
23953;BME280;12163;49.316;6.092;2023-10-08T02:44:16;100300.78;;;14.33;84.75
23953;BME280;12163;49.316;6.092;2023-10-08T02:46:44;100293.50;;;14.28;84.84
23953;BME280;12163;49.316;6.092;2023-10-08T02:49:18;100299.53;;;14.25;85.25
23953;BME280;12163;49.316;6.092;2023-10-08T02:51:54;100294.31;;;14.29;85.16
23953;BME280;12163;49.316;6.092;2023-10-08T02:54:22;100292.91;;;14.31;85.48
23953;BME280;12163;49.316;6.092;2023-10-08T02:56:59;100293.66;;;14.37;85.32
23953;BME280;12163;49.316;6.092;2023-10-08T02:59:31;100299.03;;;14.42;85.86
23953;BME280;12163;49.316;6.092;2023-10-08T03:02:12;100303.38;;;14.43;85.59
23953;BME280;12163;49.316;6.092;2023-10-08T03:04:42;100306.44;;;14.36;85.25
23953;BME280;12163;49.316;6.092;2023-10-08T03:07:15;100299.16;;;14.32;85.01
23953;BME280;12163;49.316;6.092;2023-10-08T03:09:50;100305.97;;;14.29;85.18
23953;BME280;12163;49.316;6.092;2023-10-08T03:12:17;100309.28;;;14.26;85.38
23953;BME280;12163;49.316;6.092;2023-10-08T03:14:44;100311.78;;;14.23;85.43
23953;BME280;12163;49.316;6.092;2023-10-08T03:17:30;100312.34;;;14.20;84.99
23953;BME280;12163;49.316;6.092;2023-10-08T03:20:04;100314.25;;;14.19;85.36
23953;BME280;12163;49.316;6.092;2023-10-08T03:22:51;100312.91;;;14.17;85.39
23953;BME280;12163;49.316;6.092;2023-10-08T03:25:18;100312.91;;;14.17;85.36
23953;BME280;12163;49.316;6.092;2023-10-08T03:27:45;100316.69;;;14.21;86.04
23953;BME280;12163;49.316;6.092;2023-10-08T03:30:11;100315.28;;;14.23;85.73
23953;BME280;12163;49.316;6.092;2023-10-08T03:32:42;100311.72;;;14.28;85.90
23953;BME280;12163;49.316;6.092;2023-10-08T03:35:11;100319.03;;;14.27;85.96
23953;BME280;12163;49.316;6.092;2023-10-08T03:37:39;100308.75;;;14.24;85.69
23953;BME280;12163;49.316;6.092;2023-10-08T03:40:12;100304.75;;;14.22;85.74
23953;BME280;12163;49.316;6.092;2023-10-08T03:42:58;100312.88;;;14.22;85.94
23953;BME280;12163;49.316;6.092;2023-10-08T03:45:24;100309.94;;;14.18;85.57
23953;BME280;12163;49.316;6.092;2023-10-08T03:48:09;100314.84;;;14.16;85.72
23953;BME280;12163;49.316;6.092;2023-10-08T03:50:41;100307.09;;;14.05;85.81
23953;BME280;12163;49.316;6.092;2023-10-08T03:53:10;100293.97;;;14.12;85.70
23953;BME280;12163;49.316;6.092;2023-10-08T03:55:39;100289.03;;;14.14;85.86
23953;BME280;12163;49.316;6.092;2023-10-08T03:58:09;100272.19;;;14.17;86.28
23953;BME280;12163;49.316;6.092;2023-10-08T04:00:56;100267.00;;;14.20;85.98
23953;BME280;12163;49.316;6.092;2023-10-08T04:03:35;100262.41;;;14.21;86.02
23953;BME280;12163;49.316;6.092;2023-10-08T04:06:31;100263.28;;;14.16;85.99
23953;BME280;12163;49.316;6.092;2023-10-08T04:09:05;100267.41;;;14.09;85.90
23953;BME280;12163;49.316;6.092;2023-10-08T04:11:36;100257.41;;;14.04;86.12
23953;BME280;12163;49.316;6.092;2023-10-08T04:14:10;100268.56;;;14.03;86.23
23953;BME280;12163;49.316;6.092;2023-10-08T04:16:36;100266.97;;;14.02;86.56
23953;BME280;12163;49.316;6.092;2023-10-08T04:19:04;100281.03;;;14.04;86.20
23953;BME280;12163;49.316;6.092;2023-10-08T04:21:31;100269.09;;;14.05;86.27
23953;BME280;12163;49.316;6.092;2023-10-08T04:24:00;100271.22;;;14.08;86.82
23953;BME280;12163;49.316;6.092;2023-10-08T04:26:31;100269.53;;;14.12;86.74
23953;BME280;12163;49.316;6.092;2023-10-08T04:29:00;100265.69;;;14.18;86.81
23953;BME280;12163;49.316;6.092;2023-10-08T04:31:33;100266.44;;;14.23;86.84
23953;BME280;12163;49.316;6.092;2023-10-08T04:34:05;100274.22;;;14.30;86.84
23953;BME280;12163;49.316;6.092;2023-10-08T04:36:49;100262.78;;;14.33;86.61
23953;BME280;12163;49.316;6.092;2023-10-08T04:39:23;100263.28;;;14.35;86.25
23953;BME280;12163;49.316;6.092;2023-10-08T04:42:02;100258.69;;;14.35;86.20
23953;BME280;12163;49.316;6.092;2023-10-08T04:44:40;100252.72;;;14.33;86.27
23953;BME280;12163;49.316;6.092;2023-10-08T04:47:07;100256.81;;;14.31;85.84
23953;BME280;12163;49.316;6.092;2023-10-08T04:49:54;100261.75;;;14.29;86.04
23953;BME280;12163;49.316;6.092;2023-10-08T04:52:23;100263.22;;;14.40;86.60
23953;BME280;12163;49.316;6.092;2023-10-08T04:54:51;100248.75;;;14.81;86.83
23953;BME280;12163;49.316;6.092;2023-10-08T04:57:19;100248.66;;;15.18;85.66
23953;BME280;12163;49.316;6.092;2023-10-08T04:59:49;100263.38;;;15.49;84.34
23953;BME280;12163;49.316;6.092;2023-10-08T05:02:20;100260.47;;;15.72;83.12
23953;BME280;12163;49.316;6.092;2023-10-08T05:05:05;100257.25;;;15.97;81.05
23953;BME280;12163;49.316;6.092;2023-10-08T05:07:38;100258.06;;;16.11;81.02
23953;BME280;12163;49.316;6.092;2023-10-08T05:10:14;100267.13;;;16.20;80.26
23953;BME280;12163;49.316;6.092;2023-10-08T05:12:50;100270.38;;;16.22;79.27
23953;BME280;12163;49.316;6.092;2023-10-08T05:15:27;100274.81;;;16.32;79.11
23953;BME280;12163;49.316;6.092;2023-10-08T05:18:04;100278.13;;;16.42;77.81
23953;BME280;12163;49.316;6.092;2023-10-08T05:21:00;100261.06;;;16.50;77.24
23953;BME280;12163;49.316;6.092;2023-10-08T05:23:29;100258.22;;;16.55;76.50
23953;BME280;12163;49.316;6.092;2023-10-08T05:25:57;100261.16;;;16.59;75.84
23953;BME280;12163;49.316;6.092;2023-10-08T05:28:33;100264.03;;;16.62;75.83
23953;BME280;12163;49.316;6.092;2023-10-08T05:31:14;100261.03;;;16.64;75.62
23953;BME280;12163;49.316;6.092;2023-10-08T05:33:42;100268.91;;;16.65;75.01
23953;BME280;12163;49.316;6.092;2023-10-08T05:36:46;100282.00;;;16.63;74.23
23953;BME280;12163;49.316;6.092;2023-10-08T05:39:17;100282.13;;;16.58;74.55
23953;BME280;12163;49.316;6.092;2023-10-08T05:42:18;100279.03;;;16.51;74.89
23953;BME280;12163;49.316;6.092;2023-10-08T05:45:08;100279.44;;;16.45;74.76
23953;BME280;12163;49.316;6.092;2023-10-08T05:47:36;100290.41;;;16.53;74.84
23953;BME280;12163;49.316;6.092;2023-10-08T05:50:03;100291.28;;;16.62;74.09
23953;BME280;12163;49.316;6.092;2023-10-08T05:52:44;100285.47;;;16.55;74.02
23953;BME280;12163;49.316;6.092;2023-10-08T05:55:30;100292.31;;;16.53;74.09
23953;BME280;12163;49.316;6.092;2023-10-08T05:58:03;100284.69;;;16.55;73.92
23953;BME280;12163;49.316;6.092;2023-10-08T06:00:47;100286.59;;;16.54;73.53
23953;BME280;12163;49.316;6.092;2023-10-08T06:03:17;100302.44;;;16.52;73.96
23953;BME280;12163;49.316;6.092;2023-10-08T06:06:07;100305.84;;;16.58;73.63
23953;BME280;12163;49.316;6.092;2023-10-08T06:08:41;100310.00;;;16.55;73.90
23953;BME280;12163;49.316;6.092;2023-10-08T06:11:26;100297.47;;;16.54;73.77
23953;BME280;12163;49.316;6.092;2023-10-08T06:14:23;100310.91;;;16.51;73.28
23953;BME280;12163;49.316;6.092;2023-10-08T06:17:16;100321.31;;;16.49;73.61
23953;BME280;12163;49.316;6.092;2023-10-08T06:20:02;100331.41;;;16.48;72.94
23953;BME280;12163;49.316;6.092;2023-10-08T06:22:36;100342.09;;;16.45;72.67
23953;BME280;12163;49.316;6.092;2023-10-08T06:25:03;100345.44;;;16.42;72.90
23953;BME280;12163;49.316;6.092;2023-10-08T06:27:50;100350.88;;;16.42;73.12
23953;BME280;12163;49.316;6.092;2023-10-08T06:30:22;100347.53;;;16.45;72.90
23953;BME280;12163;49.316;6.092;2023-10-08T06:32:51;100346.63;;;16.49;72.14
23953;BME280;12163;49.316;6.092;2023-10-08T06:35:20;100344.63;;;16.55;72.50
23953;BME280;12163;49.316;6.092;2023-10-08T06:37:51;100343.19;;;16.57;72.25
23953;BME280;12163;49.316;6.092;2023-10-08T06:40:21;100344.00;;;16.58;72.38
23953;BME280;12163;49.316;6.092;2023-10-08T06:43:06;100348.84;;;16.61;72.54
23953;BME280;12163;49.316;6.092;2023-10-08T06:45:44;100348.72;;;16.66;72.20
23953;BME280;12163;49.316;6.092;2023-10-08T06:48:14;100355.50;;;16.68;71.72
23953;BME280;12163;49.316;6.092;2023-10-08T06:50:52;100348.00;;;16.74;72.52
23953;BME280;12163;49.316;6.092;2023-10-08T06:53:24;100351.81;;;16.86;72.61
23953;BME280;12163;49.316;6.092;2023-10-08T06:55:51;100344.53;;;16.95;72.09
23953;BME280;12163;49.316;6.092;2023-10-08T06:58:23;100343.78;;;17.03;72.32
23953;BME280;12163;49.316;6.092;2023-10-08T07:00:52;100335.38;;;17.13;72.00
23953;BME280;12163;49.316;6.092;2023-10-08T07:03:18;100327.88;;;17.18;72.35
23953;BME280;12163;49.316;6.092;2023-10-08T07:05:51;100344.94;;;17.24;72.03
23953;BME280;12163;49.316;6.092;2023-10-08T07:08:26;100346.53;;;17.25;71.46
23953;BME280;12163;49.316;6.092;2023-10-08T07:10:53;100345.53;;;17.21;72.00
23953;BME280;12163;49.316;6.092;2023-10-08T07:13:23;100347.91;;;17.14;72.59
23953;BME280;12163;49.316;6.092;2023-10-08T07:15:52;100339.72;;;17.14;72.07
23953;BME280;12163;49.316;6.092;2023-10-08T07:18:19;100340.84;;;17.13;72.28
23953;BME280;12163;49.316;6.092;2023-10-08T07:20:53;100345.28;;;17.09;72.62
23953;BME280;12163;49.316;6.092;2023-10-08T07:23:28;100340.84;;;17.13;72.06
23953;BME280;12163;49.316;6.092;2023-10-08T07:26:03;100347.59;;;17.15;71.51
23953;BME280;12163;49.316;6.092;2023-10-08T07:28:40;100348.75;;;17.01;72.08
23953;BME280;12163;49.316;6.092;2023-10-08T07:31:18;100359.31;;;16.81;72.76
23953;BME280;12163;49.316;6.092;2023-10-08T07:33:49;100349.56;;;16.66;73.64
23953;BME280;12163;49.316;6.092;2023-10-08T07:36:42;100360.16;;;16.54;74.41
23953;BME280;12163;49.316;6.092;2023-10-08T07:39:09;100354.50;;;16.51;74.97
23953;BME280;12163;49.316;6.092;2023-10-08T07:41:49;100366.81;;;16.48;75.66
23953;BME280;12163;49.316;6.092;2023-10-08T07:44:16;100364.59;;;16.50;76.09
23953;BME280;12163;49.316;6.092;2023-10-08T07:46:49;100366.09;;;16.56;76.29
23953;BME280;12163;49.316;6.092;2023-10-08T07:49:17;100375.59;;;16.59;76.55
23953;BME280;12163;49.316;6.092;2023-10-08T07:51:44;100375.69;;;16.67;76.68
23953;BME280;12163;49.316;6.092;2023-10-08T07:54:31;100375.97;;;16.79;76.74
23953;BME280;12163;49.316;6.092;2023-10-08T07:57:02;100376.25;;;16.91;77.10
23953;BME280;12163;49.316;6.092;2023-10-08T07:59:46;100378.13;;;17.04;76.71
23953;BME280;12163;49.316;6.092;2023-10-08T08:02:15;100381.91;;;17.16;75.53
23953;BME280;12163;49.316;6.092;2023-10-08T08:04:45;100381.38;;;17.28;75.25
23953;BME280;12163;49.316;6.092;2023-10-08T08:07:12;100387.13;;;17.40;74.85
23953;BME280;12163;49.316;6.092;2023-10-08T08:09:43;100389.38;;;17.60;74.79
23953;BME280;12163;49.316;6.092;2023-10-08T08:12:21;100389.31;;;17.73;74.15
23953;BME280;12163;49.316;6.092;2023-10-08T08:14:52;100396.09;;;17.84;73.21
23953;BME280;12163;49.316;6.092;2023-10-08T08:17:19;100398.72;;;17.89;71.88
23953;BME280;12163;49.316;6.092;2023-10-08T08:19:47;100398.41;;;17.91;71.44
23953;BME280;12163;49.316;6.092;2023-10-08T08:22:15;100409.81;;;17.93;71.38
23953;BME280;12163;49.316;6.092;2023-10-08T08:24:51;100393.81;;;18.00;71.85
23953;BME280;12163;49.316;6.092;2023-10-08T08:27:43;100390.50;;;18.11;71.15
23953;BME280;12163;49.316;6.092;2023-10-08T08:30:15;100402.56;;;18.19;70.68
23953;BME280;12163;49.316;6.092;2023-10-08T08:32:44;100401.84;;;18.27;70.87
23953;BME280;12163;49.316;6.092;2023-10-08T08:35:11;100410.56;;;18.37;70.69
23953;BME280;12163;49.316;6.092;2023-10-08T08:37:43;100404.81;;;18.47;70.07
23953;BME280;12163;49.316;6.092;2023-10-08T08:40:13;100405.69;;;18.65;70.03
23953;BME280;12163;49.316;6.092;2023-10-08T08:42:47;100420.03;;;18.78;69.42
23953;BME280;12163;49.316;6.092;2023-10-08T08:45:20;100416.38;;;18.91;68.85
23953;BME280;12163;49.316;6.092;2023-10-08T08:47:47;100414.44;;;19.00;68.59
23953;BME280;12163;49.316;6.092;2023-10-08T08:50:14;100422.66;;;19.09;68.07
23953;BME280;12163;49.316;6.092;2023-10-08T08:52:41;100420.63;;;19.23;67.57
23953;BME280;12163;49.316;6.092;2023-10-08T08:55:08;100416.28;;;19.39;67.28
23953;BME280;12163;49.316;6.092;2023-10-08T08:57:47;100419.34;;;19.54;67.15
23953;BME280;12163;49.316;6.092;2023-10-08T09:00:18;100408.88;;;19.65;66.35
23953;BME280;12163;49.316;6.092;2023-10-08T09:02:46;100412.41;;;19.74;65.69
23953;BME280;12163;49.316;6.092;2023-10-08T09:05:15;100420.59;;;19.82;65.43
23953;BME280;12163;49.316;6.092;2023-10-08T09:07:57;100409.66;;;19.82;64.57
23953;BME280;12163;49.316;6.092;2023-10-08T09:10:26;100414.78;;;19.92;64.49
23953;BME280;12163;49.316;6.092;2023-10-08T09:12:57;100409.78;;;19.94;63.09
23953;BME280;12163;49.316;6.092;2023-10-08T09:15:26;100404.75;;;19.96;63.37
23953;BME280;12163;49.316;6.092;2023-10-08T09:17:53;100395.78;;;20.04;63.44
23953;BME280;12163;49.316;6.092;2023-10-08T09:20:22;100387.84;;;20.11;63.21
23953;BME280;12163;49.316;6.092;2023-10-08T09:23:12;100385.72;;;20.17;62.62
23953;BME280;12163;49.316;6.092;2023-10-08T09:25:41;100386.38;;;20.22;61.75
23953;BME280;12163;49.316;6.092;2023-10-08T09:28:08;100384.75;;;20.21;62.00
23953;BME280;12163;49.316;6.092;2023-10-08T09:30:35;100379.09;;;20.26;62.21
23953;BME280;12163;49.316;6.092;2023-10-08T09:33:09;100385.19;;;20.32;62.68
23953;BME280;12163;49.316;6.092;2023-10-08T09:35:36;100384.66;;;20.38;62.39
23953;BME280;12163;49.316;6.092;2023-10-08T09:38:05;100373.69;;;20.38;62.31
23953;BME280;12163;49.316;6.092;2023-10-08T09:40:31;100385.31;;;20.35;61.57
23953;BME280;12163;49.316;6.092;2023-10-08T09:42:59;100384.53;;;20.35;62.15
23953;BME280;12163;49.316;6.092;2023-10-08T09:45:25;100382.75;;;20.39;62.27
23953;BME280;12163;49.316;6.092;2023-10-08T09:47:56;100381.09;;;20.46;61.78
23953;BME280;12163;49.316;6.092;2023-10-08T09:50:32;100381.38;;;20.53;61.35
23953;BME280;12163;49.316;6.092;2023-10-08T09:53:09;100381.81;;;20.63;60.80
23953;BME280;12163;49.316;6.092;2023-10-08T09:55:56;100387.72;;;20.74;60.52
23953;BME280;12163;49.316;6.092;2023-10-08T09:58:24;100389.59;;;20.82;59.60
23953;BME280;12163;49.316;6.092;2023-10-08T10:00:54;100392.00;;;20.92;59.41
23953;BME280;12163;49.316;6.092;2023-10-08T10:03:25;100394.53;;;20.97;59.19
23953;BME280;12163;49.316;6.092;2023-10-08T10:05:53;100390.47;;;21.03;59.71
23953;BME280;12163;49.316;6.092;2023-10-08T10:08:25;100393.97;;;21.12;60.14
23953;BME280;12163;49.316;6.092;2023-10-08T10:11:00;100394.03;;;21.24;59.14
23953;BME280;12163;49.316;6.092;2023-10-08T10:13:28;100385.25;;;21.30;59.37
23953;BME280;12163;49.316;6.092;2023-10-08T10:15:56;100388.59;;;21.36;59.29
23953;BME280;12163;49.316;6.092;2023-10-08T10:20:53;100389.25;;;21.53;58.66
23953;BME280;12163;49.316;6.092;2023-10-08T10:23:40;100389.84;;;21.59;57.54
23953;BME280;12163;49.316;6.092;2023-10-08T10:31:34;100388.81;;;21.84;57.73
23953;BME280;12163;49.316;6.092;2023-10-08T10:34:21;100392.28;;;21.93;56.73
23953;BME280;12163;49.316;6.092;2023-10-08T10:36:50;100386.59;;;21.98;57.17
23953;BME280;12163;49.316;6.092;2023-10-08T10:39:22;100388.06;;;21.95;56.46
23953;BME280;12163;49.316;6.092;2023-10-08T10:41:58;100387.13;;;21.91;56.38
23953;BME280;12163;49.316;6.092;2023-10-08T10:44:28;100386.00;;;21.92;55.99
23953;BME280;12163;49.316;6.092;2023-10-08T10:46:57;100375.59;;;21.98;56.21
23953;BME280;12163;49.316;6.092;2023-10-08T10:49:49;100381.31;;;22.05;56.28
23953;BME280;12163;49.316;6.092;2023-10-08T10:52:24;100385.69;;;22.18;55.85
23953;BME280;12163;49.316;6.092;2023-10-08T10:55:13;100377.22;;;22.23;55.66
23953;BME280;12163;49.316;6.092;2023-10-08T10:57:46;100376.53;;;22.26;55.21
23953;BME280;12163;49.316;6.092;2023-10-08T11:00:25;100377.00;;;22.27;55.14
23953;BME280;12163;49.316;6.092;2023-10-08T11:03:02;100366.22;;;22.34;55.01
23953;BME280;12163;49.316;6.092;2023-10-08T11:05:32;100367.63;;;22.40;55.28
23953;BME280;12163;49.316;6.092;2023-10-08T11:08:05;100366.84;;;22.52;54.98
23953;BME280;12163;49.316;6.092;2023-10-08T11:10:36;100370.41;;;22.64;55.34
23953;BME280;12163;49.316;6.092;2023-10-08T11:13:05;100370.63;;;22.71;55.13
23953;BME280;12163;49.316;6.092;2023-10-08T11:18:17;100363.28;;;22.87;55.51
23953;BME280;12163;49.316;6.092;2023-10-08T11:20:44;100365.78;;;22.92;55.27
23953;BME280;12163;49.316;6.092;2023-10-08T11:26:03;100362.34;;;22.95;55.13
23953;BME280;12163;49.316;6.092;2023-10-08T11:31:03;100351.53;;;23.02;54.70
23953;BME280;12163;49.316;6.092;2023-10-08T11:33:38;100351.88;;;23.13;54.66
23953;BME280;12163;49.316;6.092;2023-10-08T11:36:07;100355.06;;;23.27;52.71
23953;BME280;12163;49.316;6.092;2023-10-08T11:38:47;100356.06;;;23.34;52.30
23953;BME280;12163;49.316;6.092;2023-10-08T11:41:15;100354.84;;;23.47;52.81
23953;BME280;12163;49.316;6.092;2023-10-08T11:43:53;100344.69;;;23.63;52.23
23953;BME280;12163;49.316;6.092;2023-10-08T11:46:28;100347.63;;;23.70;51.71
23953;BME280;12163;49.316;6.092;2023-10-08T11:49:10;100349.66;;;23.85;51.66
23953;BME280;12163;49.316;6.092;2023-10-08T11:51:45;100343.34;;;24.00;50.83
23953;BME280;12163;49.316;6.092;2023-10-08T11:54:15;100338.47;;;24.09;50.47
23953;BME280;12163;49.316;6.092;2023-10-08T11:56:42;100333.13;;;24.16;49.88
23953;BME280;12163;49.316;6.092;2023-10-08T11:59:09;100335.63;;;24.21;50.32
23953;BME280;12163;49.316;6.092;2023-10-08T12:01:36;100338.09;;;24.26;49.29
23953;BME280;12163;49.316;6.092;2023-10-08T12:04:04;100332.75;;;24.33;50.41
23953;BME280;12163;49.316;6.092;2023-10-08T12:06:31;100320.13;;;24.32;49.62
23953;BME280;12163;49.316;6.092;2023-10-08T12:08:59;100309.63;;;24.37;49.16
23953;BME280;12163;49.316;6.092;2023-10-08T12:11:26;100314.69;;;24.35;49.61
23953;BME280;12163;49.316;6.092;2023-10-08T12:14:00;100305.50;;;24.47;49.56
23953;BME280;12163;49.316;6.092;2023-10-08T12:16:26;100307.22;;;24.51;48.42
23953;BME280;12163;49.316;6.092;2023-10-08T12:18:56;100312.09;;;24.58;48.86
23953;BME280;12163;49.316;6.092;2023-10-08T12:21:27;100302.66;;;24.59;49.25
23953;BME280;12163;49.316;6.092;2023-10-08T12:23:59;100313.59;;;24.71;48.12
23953;BME280;12163;49.316;6.092;2023-10-08T12:26:27;100314.47;;;24.75;47.56
23953;BME280;12163;49.316;6.092;2023-10-08T12:28:54;100304.69;;;24.62;47.66
23953;BME280;12163;49.316;6.092;2023-10-08T12:31:21;100302.50;;;24.52;47.61
23953;BME280;12163;49.316;6.092;2023-10-08T12:33:51;100306.25;;;24.44;48.04
23953;BME280;12163;49.316;6.092;2023-10-08T12:36:23;100300.28;;;24.42;48.10
23953;BME280;12163;49.316;6.092;2023-10-08T12:38:50;100297.69;;;24.49;47.88
23953;BME280;12163;49.316;6.092;2023-10-08T12:41:34;100300.91;;;24.51;47.24
23953;BME280;12163;49.316;6.092;2023-10-08T12:44:04;100292.00;;;24.57;46.88
23953;BME280;12163;49.316;6.092;2023-10-08T12:46:34;100298.00;;;24.63;47.68
23953;BME280;12163;49.316;6.092;2023-10-08T12:49:00;100293.94;;;24.57;47.60
23953;BME280;12163;49.316;6.092;2023-10-08T12:51:30;100286.81;;;24.56;47.95
23953;BME280;12163;49.316;6.092;2023-10-08T12:54:00;100296.34;;;24.58;47.71
23953;BME280;12163;49.316;6.092;2023-10-08T12:56:38;100283.97;;;24.52;47.78
23953;BME280;12163;49.316;6.092;2023-10-08T12:59:11;100291.91;;;24.54;47.97
23953;BME280;12163;49.316;6.092;2023-10-08T13:01:47;100294.28;;;24.71;46.69
23953;BME280;12163;49.316;6.092;2023-10-08T13:04:18;100290.00;;;24.92;47.04
23953;BME280;12163;49.316;6.092;2023-10-08T13:06:54;100296.34;;;24.93;47.52
23953;BME280;12163;49.316;6.092;2023-10-08T13:09:24;100287.31;;;24.96;45.75
23953;BME280;12163;49.316;6.092;2023-10-08T13:11:50;100280.13;;;25.10;45.50
23953;BME280;12163;49.316;6.092;2023-10-08T13:14:17;100269.03;;;25.26;45.74
23953;BME280;12163;49.316;6.092;2023-10-08T13:16:44;100282.19;;;25.32;44.66
23953;BME280;12163;49.316;6.092;2023-10-08T13:19:12;100271.69;;;25.41;44.40
23953;BME280;12163;49.316;6.092;2023-10-08T13:21:38;100270.59;;;25.46;44.26
23953;BME280;12163;49.316;6.092;2023-10-08T13:24:05;100276.22;;;25.72;44.32
23953;BME280;12163;49.316;6.092;2023-10-08T13:26:36;100273.13;;;25.95;43.49
23953;BME280;12163;49.316;6.092;2023-10-08T13:29:05;100274.94;;;26.10;42.89
23953;BME280;12163;49.316;6.092;2023-10-08T13:31:32;100271.25;;;26.25;43.02
23953;BME280;12163;49.316;6.092;2023-10-08T13:34:03;100268.81;;;26.46;42.86